sensor_id;sensor_type;location;lat;lon;timestamp;pressure;altitude;pressure_sealevel;temperature;humidity
40954;BME280;26686;50.130;8.710;2023-05-24T00:01:20;100668.84;;;15.41;49.66
40954;BME280;26686;50.130;8.710;2023-05-24T00:06:27;100660.94;;;15.39;49.72
40954;BME280;26686;50.130;8.710;2023-05-24T00:11:29;100652.19;;;15.27;50.07
40954;BME280;26686;50.130;8.710;2023-05-24T00:16:31;100647.41;;;15.21;50.15
40954;BME280;26686;50.130;8.710;2023-05-24T00:21:33;100652.63;;;15.23;50.01
40954;BME280;26686;50.130;8.710;2023-05-24T00:26:37;100650.25;;;15.19;50.20
40954;BME280;26686;50.130;8.710;2023-05-24T00:31:38;100652.66;;;15.03;50.30
40954;BME280;26686;50.130;8.710;2023-05-24T00:36:40;100649.16;;;14.93;50.75
40954;BME280;26686;50.130;8.710;2023-05-24T00:41:41;100654.50;;;14.83;50.35
40954;BME280;26686;50.130;8.710;2023-05-24T00:46:43;100655.38;;;14.83;50.55
40954;BME280;26686;50.130;8.710;2023-05-24T00:51:45;100658.19;;;14.82;50.72
40954;BME280;26686;50.130;8.710;2023-05-24T00:56:47;100660.66;;;14.54;51.67
40954;BME280;26686;50.130;8.710;2023-05-24T01:01:49;100659.25;;;14.50;50.90
40954;BME280;26686;50.130;8.710;2023-05-24T01:17:14;100671.66;;;14.41;51.04
40954;BME280;26686;50.130;8.710;2023-05-24T01:22:40;100673.31;;;14.42;50.79
40954;BME280;26686;50.130;8.710;2023-05-24T01:27:46;100666.44;;;14.40;50.82
40954;BME280;26686;50.130;8.710;2023-05-24T01:32:48;100658.00;;;14.44;50.60
40954;BME280;26686;50.130;8.710;2023-05-24T01:37:49;100654.72;;;14.41;50.63
40954;BME280;26686;50.130;8.710;2023-05-24T01:42:57;100643.69;;;14.24;50.89
40954;BME280;26686;50.130;8.710;2023-05-24T01:48:20;100657.22;;;14.23;50.73
40954;BME280;26686;50.130;8.710;2023-05-24T01:53:26;100651.81;;;14.03;51.00
40954;BME280;26686;50.130;8.710;2023-05-24T01:58:34;100646.44;;;13.93;50.69
40954;BME280;26686;50.130;8.710;2023-05-24T02:03:36;100657.50;;;14.10;50.73
40954;BME280;26686;50.130;8.710;2023-05-24T02:08:38;100652.09;;;14.00;50.58
40954;BME280;26686;50.130;8.710;2023-05-24T02:13:40;100663.25;;;13.74;51.18
40954;BME280;26686;50.130;8.710;2023-05-24T02:18:41;100660.78;;;13.83;50.91
40954;BME280;26686;50.130;8.710;2023-05-24T02:23:45;100661.03;;;13.79;50.15
40954;BME280;26686;50.130;8.710;2023-05-24T02:28:46;100648.38;;;13.82;49.89
40954;BME280;26686;50.130;8.710;2023-05-24T02:33:48;100648.50;;;13.80;49.46
40954;BME280;26686;50.130;8.710;2023-05-24T02:38:50;100666.56;;;13.57;49.95
40954;BME280;26686;50.130;8.710;2023-05-24T02:43:52;100671.63;;;13.60;50.41
40954;BME280;26686;50.130;8.710;2023-05-24T02:48:53;100658.53;;;13.57;49.94
40954;BME280;26686;50.130;8.710;2023-05-24T02:53:55;100658.25;;;13.60;49.79
40954;BME280;26686;50.130;8.710;2023-05-24T02:58:56;100663.47;;;13.61;50.01
40954;BME280;26686;50.130;8.710;2023-05-24T03:03:59;100661.41;;;13.65;50.06
40954;BME280;26686;50.130;8.710;2023-05-24T03:09:00;100663.47;;;13.61;49.96
40954;BME280;26686;50.130;8.710;2023-05-24T03:14:02;100651.44;;;13.46;50.39
40954;BME280;26686;50.130;8.710;2023-05-24T03:19:04;100659.59;;;13.44;50.45
40954;BME280;26686;50.130;8.710;2023-05-24T03:24:10;100658.88;;;13.42;50.54
40954;BME280;26686;50.130;8.710;2023-05-24T03:29:13;100657.06;;;13.43;50.52
40954;BME280;26686;50.130;8.710;2023-05-24T03:34:15;100652.94;;;13.39;50.45
40954;BME280;26686;50.130;8.710;2023-05-24T03:39:16;100652.72;;;13.31;50.63
40954;BME280;26686;50.130;8.710;2023-05-24T03:44:17;100657.94;;;13.32;50.40
40954;BME280;26686;50.130;8.710;2023-05-24T03:49:19;100659.78;;;13.11;50.49
40954;BME280;26686;50.130;8.710;2023-05-24T03:54:21;100667.41;;;13.15;50.05
40954;BME280;26686;50.130;8.710;2023-05-24T03:59:22;100668.25;;;13.16;50.13
40954;BME280;26686;50.130;8.710;2023-05-24T04:04:24;100665.31;;;13.19;50.48
40954;BME280;26686;50.130;8.710;2023-05-24T04:09:25;100678.69;;;13.19;50.06
40954;BME280;26686;50.130;8.710;2023-05-24T04:14:27;100676.66;;;13.11;50.30
40954;BME280;26686;50.130;8.710;2023-05-24T04:19:28;100683.09;;;13.08;50.04
40954;BME280;26686;50.130;8.710;2023-05-24T04:24:30;100691.25;;;13.07;49.95
40954;BME280;26686;50.130;8.710;2023-05-24T04:29:31;100691.88;;;13.11;50.07
40954;BME280;26686;50.130;8.710;2023-05-24T04:34:33;100685.50;;;12.90;50.41
40954;BME280;26686;50.130;8.710;2023-05-24T04:39:35;100694.59;;;12.88;50.73
40954;BME280;26686;50.130;8.710;2023-05-24T04:44:39;100700.44;;;12.93;51.32
40954;BME280;26686;50.130;8.710;2023-05-24T04:49:40;100708.97;;;12.87;50.44
40954;BME280;26686;50.130;8.710;2023-05-24T04:54:42;100705.44;;;12.43;52.39
40954;BME280;26686;50.130;8.710;2023-05-24T04:59:44;100706.56;;;12.72;51.79
40954;BME280;26686;50.130;8.710;2023-05-24T05:04:46;100696.63;;;12.75;51.99
40954;BME280;26686;50.130;8.710;2023-05-24T05:09:47;100707.13;;;12.87;51.75
40954;BME280;26686;50.130;8.710;2023-05-24T05:14:49;100704.94;;;12.93;51.17
40954;BME280;26686;50.130;8.710;2023-05-24T05:19:51;100719.13;;;12.93;51.94
40954;BME280;26686;50.130;8.710;2023-05-24T05:24:52;100716.66;;;13.01;51.55
40954;BME280;26686;50.130;8.710;2023-05-24T05:29:54;100720.94;;;12.60;52.36
40954;BME280;26686;50.130;8.710;2023-05-24T05:34:55;100740.22;;;12.75;53.17
40954;BME280;26686;50.130;8.710;2023-05-24T05:39:57;100732.25;;;12.96;52.15
40954;BME280;26686;50.130;8.710;2023-05-24T05:44:59;100743.38;;;13.01;52.35
40954;BME280;26686;50.130;8.710;2023-05-24T05:50:00;100732.69;;;13.01;52.21
40954;BME280;26686;50.130;8.710;2023-05-24T05:55:02;100744.53;;;13.20;51.48
40954;BME280;26686;50.130;8.710;2023-05-24T06:00:04;100739.50;;;13.38;51.54
40954;BME280;26686;50.130;8.710;2023-05-24T06:05:06;100756.59;;;13.47;50.50
40954;BME280;26686;50.130;8.710;2023-05-24T06:10:08;100737.94;;;13.35;50.39
40954;BME280;26686;50.130;8.710;2023-05-24T06:15:10;100755.47;;;13.49;50.43
40954;BME280;26686;50.130;8.710;2023-05-24T06:20:12;100763.31;;;13.62;49.61
40954;BME280;26686;50.130;8.710;2023-05-24T06:25:16;100758.94;;;13.61;49.54
40954;BME280;26686;50.130;8.710;2023-05-24T06:30:19;100760.03;;;13.58;49.97
40954;BME280;26686;50.130;8.710;2023-05-24T06:35:21;100749.16;;;13.71;49.78
40954;BME280;26686;50.130;8.710;2023-05-24T06:40:23;100759.66;;;13.84;49.33
40954;BME280;26686;50.130;8.710;2023-05-24T06:45:25;100752.91;;;13.90;48.91
40954;BME280;26686;50.130;8.710;2023-05-24T06:50:27;100758.44;;;13.98;48.53
40954;BME280;26686;50.130;8.710;2023-05-24T06:55:28;100763.25;;;14.04;49.11
40954;BME280;26686;50.130;8.710;2023-05-24T07:00:30;100764.16;;;14.14;47.78
40954;BME280;26686;50.130;8.710;2023-05-24T07:05:32;100758.41;;;14.19;47.35
40954;BME280;26686;50.130;8.710;2023-05-24T07:10:34;100757.03;;;14.25;47.71
40954;BME280;26686;50.130;8.710;2023-05-24T07:15:35;100758.88;;;14.34;46.86
40954;BME280;26686;50.130;8.710;2023-05-24T07:20:37;100774.75;;;14.26;46.52
40954;BME280;26686;50.130;8.710;2023-05-24T07:25:40;100785.31;;;14.18;46.27
40954;BME280;26686;50.130;8.710;2023-05-24T07:30:42;100772.66;;;13.99;47.01
40954;BME280;26686;50.130;8.710;2023-05-24T07:35:43;100796.91;;;14.28;47.47
40954;BME280;26686;50.130;8.710;2023-05-24T07:40:51;100791.09;;;14.54;46.34
40954;BME280;26686;50.130;8.710;2023-05-24T07:45:53;100808.22;;;14.62;46.60
40954;BME280;26686;50.130;8.710;2023-05-24T07:50:55;100792.16;;;14.72;47.09
40954;BME280;26686;50.130;8.710;2023-05-24T07:55:58;100794.75;;;15.03;46.18
40954;BME280;26686;50.130;8.710;2023-05-24T08:01:00;100791.63;;;14.98;46.18
40954;BME280;26686;50.130;8.710;2023-05-24T08:06:01;100791.50;;;15.09;46.73
40954;BME280;26686;50.130;8.710;2023-05-24T08:11:04;100798.00;;;14.56;46.63
40954;BME280;26686;50.130;8.710;2023-05-24T08:16:06;100800.22;;;14.51;46.84
40954;BME280;26686;50.130;8.710;2023-05-24T08:21:07;100799.94;;;14.44;46.89
40954;BME280;26686;50.130;8.710;2023-05-24T08:26:11;100793.88;;;14.11;47.35
40954;BME280;26686;50.130;8.710;2023-05-24T08:31:13;100792.50;;;13.96;48.13
40954;BME280;26686;50.130;8.710;2023-05-24T08:36:16;100798.28;;;14.22;47.45
40954;BME280;26686;50.130;8.710;2023-05-24T08:41:18;100799.13;;;14.23;47.35
40954;BME280;26686;50.130;8.710;2023-05-24T08:46:19;100799.31;;;14.62;47.24
40954;BME280;26686;50.130;8.710;2023-05-24T08:51:22;100798.97;;;15.06;44.73
40954;BME280;26686;50.130;8.710;2023-05-24T08:56:25;100788.25;;;15.25;45.68
40954;BME280;26686;50.130;8.710;2023-05-24T09:01:31;100793.91;;;15.42;44.99
40954;BME280;26686;50.130;8.710;2023-05-24T09:06:35;100784.59;;;15.16;45.69
40954;BME280;26686;50.130;8.710;2023-05-24T09:11:38;100789.09;;;15.55;44.91
40954;BME280;26686;50.130;8.710;2023-05-24T09:16:43;100781.13;;;15.93;44.64
40954;BME280;26686;50.130;8.710;2023-05-24T09:21:45;100781.13;;;16.02;43.06
40954;BME280;26686;50.130;8.710;2023-05-24T09:26:48;100764.03;;;16.31;43.76
40954;BME280;26686;50.130;8.710;2023-05-24T09:31:54;100788.16;;;16.13;43.02
40954;BME280;26686;50.130;8.710;2023-05-24T09:36:56;100784.00;;;15.81;42.70
40954;BME280;26686;50.130;8.710;2023-05-24T09:41:57;100776.53;;;16.22;42.91
40954;BME280;26686;50.130;8.710;2023-05-24T09:47:02;100770.31;;;16.77;45.17
40954;BME280;26686;50.130;8.710;2023-05-24T09:52:07;100761.59;;;16.66;43.43
40954;BME280;26686;50.130;8.710;2023-05-24T09:57:08;100767.31;;;17.08;42.06
40954;BME280;26686;50.130;8.710;2023-05-24T10:02:11;100764.22;;;17.21;41.43
40954;BME280;26686;50.130;8.710;2023-05-24T10:07:14;100762.72;;;17.45;41.18
40954;BME280;26686;50.130;8.710;2023-05-24T10:12:15;100742.91;;;17.72;40.40
40954;BME280;26686;50.130;8.710;2023-05-24T10:17:17;100755.28;;;18.09;38.78
40954;BME280;26686;50.130;8.710;2023-05-24T10:22:19;100756.63;;;18.13;39.29
40954;BME280;26686;50.130;8.710;2023-05-24T10:27:26;100751.81;;;18.25;38.37
40954;BME280;26686;50.130;8.710;2023-05-24T10:32:32;100762.09;;;18.30;38.96
40954;BME280;26686;50.130;8.710;2023-05-24T10:37:36;100754.13;;;18.54;38.42
40954;BME280;26686;50.130;8.710;2023-05-24T10:42:37;100743.88;;;18.66;37.92
40954;BME280;26686;50.130;8.710;2023-05-24T10:47:39;100739.25;;;19.01;36.46
40954;BME280;26686;50.130;8.710;2023-05-24T10:52:41;100738.22;;;19.11;35.90
40954;BME280;26686;50.130;8.710;2023-05-24T10:57:42;100725.75;;;19.18;36.49
40954;BME280;26686;50.130;8.710;2023-05-24T11:02:47;100725.44;;;19.29;36.32
40954;BME280;26686;50.130;8.710;2023-05-24T11:07:57;100728.28;;;19.36;34.09
40954;BME280;26686;50.130;8.710;2023-05-24T11:13:00;100725.69;;;18.85;35.87
40954;BME280;26686;50.130;8.710;2023-05-24T11:23:15;100722.72;;;19.54;35.52
40954;BME280;26686;50.130;8.710;2023-05-24T11:28:17;100713.56;;;19.88;33.61
40954;BME280;26686;50.130;8.710;2023-05-24T11:33:21;100708.41;;;20.09;33.10
40954;BME280;26686;50.130;8.710;2023-05-24T11:38:24;100700.19;;;20.34;33.93
40954;BME280;26686;50.130;8.710;2023-05-24T11:43:29;100694.03;;;20.48;33.81
40954;BME280;26686;50.130;8.710;2023-05-24T11:48:31;100698.38;;;20.26;33.31
40954;BME280;26686;50.130;8.710;2023-05-24T11:53:32;100702.94;;;20.26;32.00
40954;BME280;26686;50.130;8.710;2023-05-24T11:58:43;100703.03;;;20.41;33.06
40954;BME280;26686;50.130;8.710;2023-05-24T12:03:46;100688.84;;;20.07;33.26
40954;BME280;26686;50.130;8.710;2023-05-24T12:08:47;100695.06;;;19.52;34.78
40954;BME280;26686;50.130;8.710;2023-05-24T12:13:49;100694.31;;;19.83;34.41
40954;BME280;26686;50.130;8.710;2023-05-24T12:18:51;100683.28;;;20.01;33.63
40954;BME280;26686;50.130;8.710;2023-05-24T12:24:09;100699.59;;;20.16;34.07
40954;BME280;26686;50.130;8.710;2023-05-24T12:29:11;100693.22;;;20.08;33.74
40954;BME280;26686;50.130;8.710;2023-05-24T12:34:18;100698.19;;;20.28;33.03
40954;BME280;26686;50.130;8.710;2023-05-24T12:39:23;100685.53;;;20.60;32.65
40954;BME280;26686;50.130;8.710;2023-05-24T12:44:29;100694.88;;;20.80;32.42
40954;BME280;26686;50.130;8.710;2023-05-24T12:49:31;100685.81;;;20.73;32.11
40954;BME280;26686;50.130;8.710;2023-05-24T12:54:33;100679.91;;;20.38;32.14
40954;BME280;26686;50.130;8.710;2023-05-24T12:59:34;100654.91;;;20.05;32.49
40954;BME280;26686;50.130;8.710;2023-05-24T13:04:37;100668.72;;;20.10;32.31
40954;BME280;26686;50.130;8.710;2023-05-24T13:09:38;100667.88;;;20.09;32.36
40954;BME280;26686;50.130;8.710;2023-05-24T13:14:40;100671.25;;;20.11;32.84
40954;BME280;26686;50.130;8.710;2023-05-24T13:19:41;100654.84;;;20.44;31.87
40954;BME280;26686;50.130;8.710;2023-05-24T13:24:43;100658.53;;;20.52;32.66
40954;BME280;26686;50.130;8.710;2023-05-24T13:29:44;100656.25;;;20.40;32.43
40954;BME280;26686;50.130;8.710;2023-05-24T13:35:00;100649.50;;;20.36;32.03
40954;BME280;26686;50.130;8.710;2023-05-24T13:40:02;100652.72;;;20.00;31.65
40954;BME280;26686;50.130;8.710;2023-05-24T13:45:04;100654.69;;;19.67;31.81
40954;BME280;26686;50.130;8.710;2023-05-24T13:50:08;100651.56;;;19.94;31.89
40954;BME280;26686;50.130;8.710;2023-05-24T13:55:10;100637.28;;;19.77;32.29
40954;BME280;26686;50.130;8.710;2023-05-24T14:00:12;100652.09;;;19.90;36.51
40954;BME280;26686;50.130;8.710;2023-05-24T14:05:14;100650.91;;;19.92;34.26
40954;BME280;26686;50.130;8.710;2023-05-24T14:10:27;100648.69;;;19.96;33.59
40954;BME280;26686;50.130;8.710;2023-05-24T14:15:29;100647.03;;;19.87;33.24
40954;BME280;26686;50.130;8.710;2023-05-24T14:20:30;100647.69;;;19.89;33.13
40954;BME280;26686;50.130;8.710;2023-05-24T14:25:33;100654.09;;;19.96;33.67
40954;BME280;26686;50.130;8.710;2023-05-24T14:30:34;100636.88;;;19.97;33.41
40954;BME280;26686;50.130;8.710;2023-05-24T14:35:38;100633.91;;;19.59;33.37
40954;BME280;26686;50.130;8.710;2023-05-24T14:40:40;100639.63;;;19.72;34.33
40954;BME280;26686;50.130;8.710;2023-05-24T14:45:42;100631.22;;;19.67;33.35
40954;BME280;26686;50.130;8.710;2023-05-24T14:50:44;100634.25;;;19.81;33.03
40954;BME280;26686;50.130;8.710;2023-05-24T14:55:45;100624.75;;;19.76;32.69
40954;BME280;26686;50.130;8.710;2023-05-24T15:00:47;100625.19;;;19.49;32.36
40954;BME280;26686;50.130;8.710;2023-05-24T15:05:49;100631.75;;;19.54;32.20
40954;BME280;26686;50.130;8.710;2023-05-24T15:10:51;100626.84;;;19.58;32.95
40954;BME280;26686;50.130;8.710;2023-05-24T15:15:53;100623.69;;;19.38;32.79
40954;BME280;26686;50.130;8.710;2023-05-24T15:20:56;100615.75;;;19.45;32.19
40954;BME280;26686;50.130;8.710;2023-05-24T15:25:58;100620.50;;;19.34;31.64
40954;BME280;26686;50.130;8.710;2023-05-24T15:30:59;100623.84;;;19.45;31.33
40954;BME280;26686;50.130;8.710;2023-05-24T15:36:03;100612.06;;;19.37;31.01
40954;BME280;26686;50.130;8.710;2023-05-24T15:41:04;100611.09;;;19.22;31.75
40954;BME280;26686;50.130;8.710;2023-05-24T15:46:06;100623.53;;;19.23;32.21
40954;BME280;26686;50.130;8.710;2023-05-24T15:51:07;100626.28;;;19.15;32.48
40954;BME280;26686;50.130;8.710;2023-05-24T15:56:12;100604.00;;;19.04;32.27
40954;BME280;26686;50.130;8.710;2023-05-24T16:01:13;100621.56;;;19.08;31.64
40954;BME280;26686;50.130;8.710;2023-05-24T16:06:15;100619.72;;;19.01;31.85
40954;BME280;26686;50.130;8.710;2023-05-24T16:11:16;100627.63;;;18.86;32.29
40954;BME280;26686;50.130;8.710;2023-05-24T16:16:21;100625.28;;;18.91;32.14
40954;BME280;26686;50.130;8.710;2023-05-24T16:21:23;100615.81;;;18.79;31.67
40954;BME280;26686;50.130;8.710;2023-05-24T16:26:25;100615.94;;;18.69;32.14
40954;BME280;26686;50.130;8.710;2023-05-24T16:31:28;100617.63;;;18.53;32.58
40954;BME280;26686;50.130;8.710;2023-05-24T16:36:31;100608.03;;;18.67;32.38
40954;BME280;26686;50.130;8.710;2023-05-24T16:41:33;100604.84;;;18.55;32.86
40954;BME280;26686;50.130;8.710;2023-05-24T16:46:38;100598.78;;;18.62;33.04
40954;BME280;26686;50.130;8.710;2023-05-24T16:51:39;100608.22;;;18.74;33.84
40954;BME280;26686;50.130;8.710;2023-05-24T16:56:41;100596.75;;;18.64;34.72
40954;BME280;26686;50.130;8.710;2023-05-24T17:01:42;100600.63;;;18.78;33.51
40954;BME280;26686;50.130;8.710;2023-05-24T17:06:45;100597.94;;;18.78;33.55
40954;BME280;26686;50.130;8.710;2023-05-24T17:11:47;100593.88;;;18.82;34.18
40954;BME280;26686;50.130;8.710;2023-05-24T17:16:50;100609.72;;;18.85;33.33
40954;BME280;26686;50.130;8.710;2023-05-24T17:21:52;100606.53;;;18.73;33.19
40954;BME280;26686;50.130;8.710;2023-05-24T17:26:53;100604.69;;;18.65;34.17
40954;BME280;26686;50.130;8.710;2023-05-24T17:31:55;100605.84;;;18.63;33.74
40954;BME280;26686;50.130;8.710;2023-05-24T17:36:57;100611.06;;;18.64;34.05
40954;BME280;26686;50.130;8.710;2023-05-24T17:41:58;100604.19;;;18.62;34.27
40954;BME280;26686;50.130;8.710;2023-05-24T17:46:59;100620.34;;;18.53;34.57
40954;BME280;26686;50.130;8.710;2023-05-24T17:52:02;100622.03;;;18.54;35.23
40954;BME280;26686;50.130;8.710;2023-05-24T17:57:03;100624.91;;;18.53;35.48
40954;BME280;26686;50.130;8.710;2023-05-24T18:02:06;100623.53;;;18.41;35.44
40954;BME280;26686;50.130;8.710;2023-05-24T18:07:07;100628.06;;;18.40;35.94
40954;BME280;26686;50.130;8.710;2023-05-24T18:12:09;100622.84;;;18.30;36.39
40954;BME280;26686;50.130;8.710;2023-05-24T18:17:12;100638.13;;;18.30;36.86
40954;BME280;26686;50.130;8.710;2023-05-24T18:22:15;100635.06;;;18.16;36.85
40954;BME280;26686;50.130;8.710;2023-05-24T18:27:16;100630.84;;;18.06;36.94
40954;BME280;26686;50.130;8.710;2023-05-24T18:32:18;100642.59;;;17.96;37.00
40954;BME280;26686;50.130;8.710;2023-05-24T18:37:19;100649.25;;;17.84;37.79
40954;BME280;26686;50.130;8.710;2023-05-24T18:42:23;100642.81;;;17.77;38.24
40954;BME280;26686;50.130;8.710;2023-05-24T18:47:25;100650.78;;;17.60;39.42
40954;BME280;26686;50.130;8.710;2023-05-24T18:52:27;100648.16;;;17.42;39.64
40954;BME280;26686;50.130;8.710;2023-05-24T18:57:29;100665.06;;;17.26;40.23
40954;BME280;26686;50.130;8.710;2023-05-24T19:02:32;100662.50;;;17.25;40.26
40954;BME280;26686;50.130;8.710;2023-05-24T19:07:38;100651.69;;;16.90;40.81
40954;BME280;26686;50.130;8.710;2023-05-24T19:12:41;100667.63;;;16.74;41.38
40954;BME280;26686;50.130;8.710;2023-05-24T19:17:43;100675.44;;;16.85;41.44
40954;BME280;26686;50.130;8.710;2023-05-24T19:22:44;100685.91;;;16.88;41.10
40954;BME280;26686;50.130;8.710;2023-05-24T19:27:46;100697.41;;;16.81;41.45
40954;BME280;26686;50.130;8.710;2023-05-24T19:33:00;100703.75;;;16.61;42.13
40954;BME280;26686;50.130;8.710;2023-05-24T19:38:02;100704.78;;;16.60;42.35
40954;BME280;26686;50.130;8.710;2023-05-24T19:43:04;100706.28;;;16.45;42.78
40954;BME280;26686;50.130;8.710;2023-05-24T19:48:05;100720.91;;;16.33;43.53
40954;BME280;26686;50.130;8.710;2023-05-24T19:53:09;100725.03;;;16.27;43.76
40954;BME280;26686;50.130;8.710;2023-05-24T19:58:11;100724.06;;;16.28;43.77
40954;BME280;26686;50.130;8.710;2023-05-24T20:03:12;100737.25;;;16.21;44.14
40954;BME280;26686;50.130;8.710;2023-05-24T20:08:14;100745.31;;;16.21;44.48
40954;BME280;26686;50.130;8.710;2023-05-24T20:13:16;100737.56;;;16.08;44.54
40954;BME280;26686;50.130;8.710;2023-05-24T20:18:18;100734.41;;;15.85;45.80
40954;BME280;26686;50.130;8.710;2023-05-24T20:23:20;100749.81;;;15.73;46.10
40954;BME280;26686;50.130;8.710;2023-05-24T20:28:22;100744.16;;;15.77;46.06
40954;BME280;26686;50.130;8.710;2023-05-24T20:33:31;100756.59;;;15.68;46.26
40954;BME280;26686;50.130;8.710;2023-05-24T20:38:38;100751.53;;;15.65;46.71
40954;BME280;26686;50.130;8.710;2023-05-24T20:43:40;100752.66;;;15.72;46.96
40954;BME280;26686;50.130;8.710;2023-05-24T20:48:41;100761.81;;;15.60;47.57
40954;BME280;26686;50.130;8.710;2023-05-24T20:53:43;100753.53;;;15.63;47.73
40954;BME280;26686;50.130;8.710;2023-05-24T20:58:46;100751.53;;;15.55;47.65
40954;BME280;26686;50.130;8.710;2023-05-24T21:03:49;100757.75;;;15.55;47.66
40954;BME280;26686;50.130;8.710;2023-05-24T21:08:50;100756.91;;;15.45;47.88
40954;BME280;26686;50.130;8.710;2023-05-24T21:13:52;100752.97;;;15.49;47.56
40954;BME280;26686;50.130;8.710;2023-05-24T21:18:53;100763.69;;;15.49;48.02
40954;BME280;26686;50.130;8.710;2023-05-24T21:23:55;100764.53;;;15.40;48.52
40954;BME280;26686;50.130;8.710;2023-05-24T21:28:56;100760.88;;;15.22;48.75
40954;BME280;26686;50.130;8.710;2023-05-24T21:33:58;100763.72;;;15.30;48.91
40954;BME280;26686;50.130;8.710;2023-05-24T21:38:59;100767.38;;;15.29;48.85
40954;BME280;26686;50.130;8.710;2023-05-24T21:44:03;100767.09;;;15.22;48.75
40954;BME280;26686;50.130;8.710;2023-05-24T21:49:07;100770.63;;;15.13;48.92
40954;BME280;26686;50.130;8.710;2023-05-24T21:54:08;100762.56;;;15.13;48.95
40954;BME280;26686;50.130;8.710;2023-05-24T21:59:10;100778.09;;;15.09;49.17
40954;BME280;26686;50.130;8.710;2023-05-24T22:04:11;100780.06;;;15.07;49.27
40954;BME280;26686;50.130;8.710;2023-05-24T22:09:13;100789.09;;;14.87;49.56
40954;BME280;26686;50.130;8.710;2023-05-24T22:14:14;100780.88;;;14.78;49.77
40954;BME280;26686;50.130;8.710;2023-05-24T22:19:16;100790.63;;;14.79;49.78
40954;BME280;26686;50.130;8.710;2023-05-24T22:24:32;100786.44;;;14.56;50.29
40954;BME280;26686;50.130;8.710;2023-05-24T22:29:34;100789.59;;;14.61;50.23
40954;BME280;26686;50.130;8.710;2023-05-24T22:34:36;100791.66;;;14.57;50.14
40954;BME280;26686;50.130;8.710;2023-05-24T22:39:37;100795.19;;;14.58;50.68
40954;BME280;26686;50.130;8.710;2023-05-24T22:44:39;100796.25;;;14.45;50.60
40954;BME280;26686;50.130;8.710;2023-05-24T22:49:40;100792.88;;;14.43;50.99
40954;BME280;26686;50.130;8.710;2023-05-24T22:54:43;100798.78;;;14.47;51.08
40954;BME280;26686;50.130;8.710;2023-05-24T22:59:44;100803.06;;;14.19;52.63
40954;BME280;26686;50.130;8.710;2023-05-24T23:04:46;100802.34;;;14.17;52.95
40954;BME280;26686;50.130;8.710;2023-05-24T23:09:48;100805.75;;;14.19;52.67
40954;BME280;26686;50.130;8.710;2023-05-24T23:14:51;100802.03;;;14.10;53.05
40954;BME280;26686;50.130;8.710;2023-05-24T23:19:54;100809.94;;;14.11;53.61
40954;BME280;26686;50.130;8.710;2023-05-24T23:24:55;100808.34;;;13.99;54.37
40954;BME280;26686;50.130;8.710;2023-05-24T23:29:57;100809.72;;;13.72;55.31
40954;BME280;26686;50.130;8.710;2023-05-24T23:34:58;100815.97;;;13.83;55.05
40954;BME280;26686;50.130;8.710;2023-05-24T23:40:00;100818.97;;;13.89;55.44
40954;BME280;26686;50.130;8.710;2023-05-24T23:45:06;100812.38;;;13.51;57.03
40954;BME280;26686;50.130;8.710;2023-05-24T23:50:08;100801.81;;;13.50;57.24
40954;BME280;26686;50.130;8.710;2023-05-24T23:55:10;100817.19;;;13.57;56.44
